Time;durP1;ratioP1;P1;durP2;ratioP2;P2;SDS_P1;SDS_P2;PMS_P1;PMS_P2;Temp;Humidity;BMP_temperature;BMP_pressure;BME280_temperature;BME280_humidity;BME280_pressure;Samples;Min_cycle;Max_cycle;Signal;HPM_P1;HPM_P2
2023/06/09 00:02:07;;;;;;;1.40;0.50;;;20.40;54.10;;;;;;5064652;28;20028;-65
2023/06/09 00:04:35;;;;;;;1.48;0.77;;;20.30;54.10;;;;;;5064272;28;20028;-65
2023/06/09 00:07:02;;;;;;;1.63;0.82;;;20.30;54.20;;;;;;5067423;28;20499;-68
2023/06/09 00:09:31;;;;;;;1.00;0.75;;;20.30;54.20;;;;;;5067275;28;20428;-69
2023/06/09 00:11:58;;;;;;;6.32;0.77;;;20.30;54.30;;;;;;5063609;28;20025;-69
2023/06/09 00:14:23;;;;;;;1.92;1.17;;;20.30;54.30;;;;;;5062466;28;20032;-68
2023/06/09 00:16:49;;;;;;;3.78;0.90;;;20.20;54.30;;;;;;5043883;28;20040;-68
2023/06/09 00:19:19;;;;;;;2.85;1.00;;;20.20;54.50;;;;;;5067543;28;20044;-66
2023/06/09 00:21:49;;;;;;;2.42;1.23;;;20.10;54.70;;;;;;5049505;28;20028;-66
2023/06/09 00:24:16;;;;;;;0.85;0.85;;;20.10;54.80;;;;;;5066088;28;20107;-66
2023/06/09 00:26:42;;;;;;;1.70;0.93;;;20.10;54.90;;;;;;5063601;28;20027;-66
2023/06/09 00:29:08;;;;;;;1.48;0.65;;;20.10;55.10;;;;;;5066915;28;20032;-66
2023/06/09 00:31:33;;;;;;;1.55;1.00;;;20.10;54.90;;;;;;5060654;28;20037;-66
2023/06/09 00:33:59;;;;;;;4.97;1.10;;;20.10;54.90;;;;;;5053805;28;20032;-65
2023/06/09 00:36:25;;;;;;;3.95;1.13;;;20.10;55.00;;;;;;5069488;28;20028;-65
2023/06/09 00:38:50;;;;;;;1.88;1.13;;;20.00;55.00;;;;;;5070894;28;20027;-65
2023/06/09 00:41:16;;;;;;;3.03;0.75;;;20.00;55.00;;;;;;5064677;28;20029;-65
2023/06/09 00:43:47;;;;;;;1.38;1.08;;;19.90;55.00;;;;;;5029519;28;20025;-65
2023/06/09 00:46:13;;;;;;;1.70;0.73;;;19.90;55.10;;;;;;5064729;28;20070;-66
2023/06/09 00:48:39;;;;;;;3.47;0.80;;;19.90;55.20;;;;;;5049117;28;20033;-66
2023/06/09 00:51:05;;;;;;;1.13;0.60;;;19.90;55.20;;;;;;5066755;28;20516;-66
2023/06/09 00:53:31;;;;;;;1.80;1.02;;;19.90;55.20;;;;;;5071351;28;20052;-66
2023/06/09 00:55:57;;;;;;;2.03;0.82;;;19.90;55.30;;;;;;5069838;28;20410;-66
2023/06/09 00:58:23;;;;;;;1.65;1.00;;;19.90;55.40;;;;;;5068501;28;20080;-66
2023/06/09 01:00:50;;;;;;;2.20;1.08;;;19.90;55.40;;;;;;5067644;28;20036;-66
2023/06/09 01:03:16;;;;;;;2.75;1.23;;;19.90;55.50;;;;;;5045171;28;20028;-66
2023/06/09 01:05:48;;;;;;;2.85;0.82;;;19.80;55.50;;;;;;5044509;28;20032;-65
2023/06/09 01:08:36;;;;;;;1.63;0.88;;;19.80;55.40;;;;;;5046051;28;20077;-66
2023/06/09 01:11:25;;;;;;;2.22;1.10;;;19.90;55.60;;;;;;5067982;28;20159;-65
2023/06/09 01:14:00;;;;;;;2.92;0.60;;;19.80;55.60;;;;;;5068398;28;20415;-65
2023/06/09 01:16:48;;;;;;;4.28;1.08;;;19.70;55.70;;;;;;5059539;28;20036;-65
2023/06/09 01:19:31;;;;;;;6.57;1.00;;;19.70;55.80;;;;;;5070159;28;20016;-65
2023/06/09 01:22:02;;;;;;;1.67;1.40;;;19.70;56.10;;;;;;5040168;28;20055;-65
2023/06/09 01:24:47;;;;;;;3.53;1.05;;;19.60;56.30;;;;;;5067717;28;20036;-66
2023/06/09 01:27:17;;;;;;;1.33;0.80;;;19.60;56.50;;;;;;5060470;28;20028;-65
2023/06/09 01:29:44;;;;;;;1.38;1.08;;;19.50;56.60;;;;;;5066285;28;20074;-65
2023/06/09 01:32:12;;;;;;;4.32;1.17;;;19.50;56.80;;;;;;5069993;28;20021;-65
2023/06/09 01:34:39;;;;;;;5.65;1.27;;;19.40;56.80;;;;;;5070249;28;20031;-66
2023/06/09 01:37:05;;;;;;;2.25;1.17;;;19.40;56.90;;;;;;5052419;28;20028;-65
2023/06/09 01:39:32;;;;;;;2.78;0.90;;;19.40;57.00;;;;;;5045571;28;20016;-65
2023/06/09 01:41:57;;;;;;;2.70;1.25;;;19.40;57.00;;;;;;5060739;28;20442;-65
2023/06/09 01:44:23;;;;;;;1.80;1.08;;;19.40;57.10;;;;;;5059032;28;20039;-65
2023/06/09 01:46:49;;;;;;;2.45;0.80;;;19.30;57.30;;;;;;5048778;28;20056;-65
2023/06/09 01:49:22;;;;;;;1.13;0.60;;;19.30;57.30;;;;;;5032053;28;20089;-65
2023/06/09 01:51:52;;;;;;;1.25;1.05;;;19.30;57.50;;;;;;5063929;28;20020;-66
2023/06/09 01:54:40;;;;;;;1.50;0.65;;;19.30;57.50;;;;;;5065838;28;20068;-65
2023/06/09 01:57:19;;;;;;;1.52;0.80;;;19.20;57.50;;;;;;5058968;28;20045;-65
2023/06/09 01:59:51;;;;;;;1.55;0.73;;;19.20;57.70;;;;;;5061728;28;20021;-65
2023/06/09 02:02:18;;;;;;;;;;;19.10;57.90;;;;;;5061442;28;20434;-65
2023/06/09 02:04:47;;;;;;;1.73;1.13;;;19.00;58.10;;;;;;5062192;28;19905;-68
2023/06/09 02:07:16;;;;;;;2.70;1.45;;;19.00;58.30;;;;;;5059186;28;20413;-67
2023/06/09 02:09:44;;;;;;;2.75;1.00;;;19.00;58.30;;;;;;5063484;28;20035;-68
2023/06/09 02:12:10;;;;;;;0.90;0.65;;;18.90;58.30;;;;;;5059701;28;20025;-68
2023/06/09 02:14:36;;;;;;;2.60;1.00;;;18.90;58.30;;;;;;5069107;28;20078;-67
2023/06/09 02:17:02;;;;;;;0.93;0.68;;;18.90;58.40;;;;;;5049841;28;20024;-68
2023/06/09 02:19:30;;;;;;;0.98;0.55;;;18.80;58.40;;;;;;5032991;28;20025;-68
2023/06/09 02:21:57;;;;;;;3.70;0.57;;;18.80;58.50;;;;;;5048529;28;20029;-68
2023/06/09 02:24:27;;;;;;;0.95;0.70;;;18.70;58.50;;;;;;5068596;28;20020;-68
2023/06/09 02:26:54;;;;;;;1.48;0.70;;;18.70;58.50;;;;;;5066878;28;20028;-67
2023/06/09 02:29:22;;;;;;;7.53;1.48;;;18.70;58.60;;;;;;5070187;28;20024;-68
2023/06/09 02:31:48;;;;;;;3.17;1.08;;;18.60;58.70;;;;;;5069441;28;20107;-67
2023/06/09 02:34:13;;;;;;;1.52;0.95;;;18.60;58.80;;;;;;5045491;28;20136;-68
2023/06/09 02:36:42;;;;;;;1.75;1.48;;;18.60;58.90;;;;;;5064380;28;20043;-68
2023/06/09 02:39:11;;;;;;;1.52;0.75;;;18.60;59.00;;;;;;5066997;28;20025;-65
2023/06/09 02:41:36;;;;;;;1.85;0.88;;;18.60;59.00;;;;;;5044363;28;20058;-65
2023/06/09 02:44:02;;;;;;;7.05;1.35;;;18.50;59.00;;;;;;5066454;28;20102;-65
2023/06/09 02:46:29;;;;;;;1.27;1.02;;;18.50;59.20;;;;;;5062788;28;20040;-65
2023/06/09 02:48:55;;;;;;;2.85;1.20;;;18.50;59.20;;;;;;5041620;28;20020;-65
2023/06/09 02:51:21;;;;;;;1.77;0.90;;;18.40;59.10;;;;;;5048500;28;20111;-64
2023/06/09 02:53:46;;;;;;;5.55;1.40;;;18.40;59.20;;;;;;5049809;28;20451;-65
2023/06/09 02:56:13;;;;;;;2.00;1.15;;;18.40;59.30;;;;;;5042426;28;20131;-65
2023/06/09 02:58:39;;;;;;;0.70;0.70;;;18.40;59.30;;;;;;5044067;28;20401;-65
2023/06/09 03:01:06;;;;;;;3.13;1.35;;;18.30;59.40;;;;;;5047487;28;20082;-65
2023/06/09 03:03:34;;;;;;;6.00;1.10;;;18.30;59.50;;;;;;5045926;28;20032;-65
2023/06/09 03:06:00;;;;;;;2.13;1.00;;;18.30;59.40;;;;;;5046497;28;20422;-65
2023/06/09 03:08:26;;;;;;;6.45;2.17;;;18.30;59.40;;;;;;5043548;28;20036;-65
2023/06/09 03:10:53;;;;;;;1.70;1.13;;;18.30;59.60;;;;;;5047557;28;20028;-65
2023/06/09 03:13:18;;;;;;;3.70;1.08;;;18.20;59.70;;;;;;5043084;28;20055;-65
2023/06/09 03:15:44;;;;;;;6.32;1.55;;;18.20;59.80;;;;;;5047299;28;20045;-65
2023/06/09 03:18:10;;;;;;;2.17;0.90;;;18.20;59.80;;;;;;5048558;28;20432;-65
2023/06/09 03:20:36;;;;;;;1.40;1.15;;;18.20;59.90;;;;;;5046000;28;20040;-65
2023/06/09 03:23:02;;;;;;;4.78;1.13;;;18.10;60.00;;;;;;5046501;28;20061;-65
2023/06/09 03:25:31;;;;;;;2.53;1.45;;;18.10;60.00;;;;;;5040376;28;20075;-65
2023/06/09 03:27:56;;;;;;;3.00;0.88;;;18.10;60.20;;;;;;5046979;28;20365;-66
2023/06/09 03:30:22;;;;;;;1.60;0.70;;;18.00;60.00;;;;;;5048979;28;20036;-66
2023/06/09 03:32:48;;;;;;;3.70;1.63;;;18.00;60.10;;;;;;5048523;28;20036;-66
2023/06/09 03:35:15;;;;;;;2.45;1.17;;;18.00;60.30;;;;;;5047911;28;20032;-65
2023/06/09 03:37:41;;;;;;;5.55;1.48;;;18.00;60.40;;;;;;5048157;28;20036;-66
2023/06/09 03:40:07;;;;;;;4.57;0.95;;;18.00;60.40;;;;;;5048431;28;20497;-68
2023/06/09 03:42:33;;;;;;;1.88;1.00;;;18.00;60.40;;;;;;5047441;28;20104;-68
2023/06/09 03:44:58;;;;;;;2.30;1.52;;;18.00;60.60;;;;;;5047708;28;20034;-67
2023/06/09 03:47:25;;;;;;;4.15;1.73;;;18.00;60.80;;;;;;5034583;28;20507;-67
2023/06/09 03:49:51;;;;;;;3.30;1.08;;;18.00;60.90;;;;;;5031871;28;20034;-69
2023/06/09 03:52:16;;;;;;;3.75;1.10;;;18.00;61.00;;;;;;5042332;28;20027;-67
2023/06/09 03:54:42;;;;;;;1.23;0.93;;;18.00;60.90;;;;;;5044169;28;20108;-67
2023/06/09 03:57:10;;;;;;;2.00;0.93;;;18.00;60.90;;;;;;5043222;28;20107;-68
2023/06/09 03:59:36;;;;;;;4.43;1.33;;;18.00;61.00;;;;;;5047792;28;20025;-68
2023/06/09 04:02:02;;;;;;;2.25;1.02;;;18.00;61.10;;;;;;5042692;28;20176;-67
2023/06/09 04:04:27;;;;;;;2.05;1.20;;;18.00;61.10;;;;;;5046127;28;20031;-67
2023/06/09 04:06:56;;;;;;;2.80;1.10;;;18.00;61.10;;;;;;5040710;28;20443;-67
2023/06/09 04:09:22;;;;;;;1.83;0.90;;;18.00;61.10;;;;;;5034308;28;20549;-65
2023/06/09 04:11:48;;;;;;;0.77;0.77;;;18.00;61.20;;;;;;5028927;28;20043;-66
2023/06/09 04:14:13;;;;;;;2.47;0.90;;;18.00;61.30;;;;;;5035389;28;20372;-68
2023/06/09 04:16:39;;;;;;;1.50;1.40;;;18.00;61.30;;;;;;5041641;28;20515;-68
2023/06/09 04:19:06;;;;;;;1.67;1.17;;;18.10;61.40;;;;;;5045710;28;20067;-68
2023/06/09 04:21:33;;;;;;;3.38;1.40;;;18.10;61.40;;;;;;5041405;28;20076;-68
2023/06/09 04:23:58;;;;;;;4.47;1.77;;;18.10;61.60;;;;;;5036504;28;20112;-68
2023/06/09 04:26:25;;;;;;;1.52;1.00;;;18.10;61.60;;;;;;5038177;28;20117;-65
2023/06/09 04:28:53;;;;;;;2.13;0.90;;;18.10;61.60;;;;;;5042925;28;20021;-65
2023/06/09 04:31:23;;;;;;;2.15;1.38;;;18.10;61.60;;;;;;5037500;28;20396;-65
2023/06/09 04:33:54;;;;;;;1.40;1.00;;;18.20;61.90;;;;;;5038009;28;20064;-65
2023/06/09 04:36:20;;;;;;;1.42;1.00;;;18.20;62.00;;;;;;5042944;28;20033;-65
2023/06/09 04:38:47;;;;;;;1.85;1.25;;;18.20;62.10;;;;;;5044205;28;20017;-67
2023/06/09 04:41:12;;;;;;;1.95;1.40;;;18.20;62.20;;;;;;5042919;28;20057;-67
2023/06/09 04:43:39;;;;;;;2.30;1.15;;;18.20;62.20;;;;;;5046765;28;20095;-69
2023/06/09 04:46:06;;;;;;;4.25;1.05;;;18.30;62.20;;;;;;5037315;28;20116;-67
2023/06/09 04:48:34;;;;;;;3.95;1.35;;;18.40;62.20;;;;;;5029370;28;20037;-67
2023/06/09 04:51:01;;;;;;;3.80;1.63;;;18.50;62.10;;;;;;5038442;28;20056;-65
2023/06/09 04:53:30;;;;;;;2.75;1.00;;;18.50;62.10;;;;;;5044150;28;20120;-65
2023/06/09 04:55:56;;;;;;;2.53;1.20;;;18.50;62.00;;;;;;5036404;28;20033;-65
2023/06/09 04:58:23;;;;;;;2.60;1.25;;;18.50;62.00;;;;;;5060479;28;20028;-67
2023/06/09 05:00:50;;;;;;;4.60;1.10;;;18.50;61.90;;;;;;5069581;28;20028;-67
2023/06/09 05:03:17;;;;;;;1.67;1.15;;;18.60;62.00;;;;;;5071019;28;20660;-67
2023/06/09 05:05:43;;;;;;;1.48;1.10;;;18.60;62.20;;;;;;5065808;28;20527;-67
2023/06/09 05:08:09;;;;;;;1.13;1.02;;;18.70;62.20;;;;;;5069128;28;20024;-65
2023/06/09 05:10:35;;;;;;;1.73;1.27;;;18.70;62.30;;;;;;5048431;28;20033;-65
2023/06/09 05:13:01;;;;;;;3.65;1.42;;;18.80;62.30;;;;;;5068997;28;20102;-65
2023/06/09 05:15:27;;;;;;;3.63;1.23;;;18.80;62.20;;;;;;5048248;28;20039;-65
2023/06/09 05:17:53;;;;;;;2.78;1.17;;;18.80;62.20;;;;;;5045943;28;20102;-65
2023/06/09 05:20:19;;;;;;;2.05;1.30;;;18.90;62.10;;;;;;5065496;28;20024;-67
2023/06/09 05:22:45;;;;;;;1.98;1.10;;;19.00;62.30;;;;;;5052475;28;20036;-67
2023/06/09 05:25:14;;;;;;;3.50;1.30;;;19.00;62.10;;;;;;5059438;28;20023;-67
2023/06/09 05:27:40;;;;;;;3.42;1.20;;;19.10;62.20;;;;;;5064336;28;20028;-68
2023/06/09 05:30:06;;;;;;;2.72;1.00;;;19.10;62.20;;;;;;5059281;28;20035;-67
2023/06/09 05:32:32;;;;;;;2.70;0.82;;;19.10;62.20;;;;;;5068066;28;20029;-65
2023/06/09 05:34:58;;;;;;;1.55;0.73;;;19.20;62.20;;;;;;5067392;28;20017;-65
2023/06/09 05:37:25;;;;;;;2.72;1.05;;;19.20;62.20;;;;;;5051326;28;20054;-65
2023/06/09 05:39:51;;;;;;;1.35;1.00;;;19.30;62.10;;;;;;5071396;28;20037;-65
2023/06/09 05:42:16;;;;;;;3.97;1.52;;;19.40;62.10;;;;;;5066469;28;20045;-65
2023/06/09 05:44:42;;;;;;;3.72;1.30;;;19.40;62.20;;;;;;5044916;28;20021;-65
2023/06/09 05:47:08;;;;;;;2.15;1.50;;;19.50;62.10;;;;;;5067703;28;20064;-65
2023/06/09 05:49:34;;;;;;;2.58;1.33;;;19.50;62.20;;;;;;5070985;28;20024;-65
2023/06/09 05:52:00;;;;;;;3.63;1.10;;;19.60;62.10;;;;;;5069883;28;20032;-68
2023/06/09 05:54:26;;;;;;;1.20;1.00;;;19.60;61.90;;;;;;5070465;28;20033;-67
2023/06/09 05:56:53;;;;;;;1.67;1.58;;;19.70;61.90;;;;;;5069513;28;20500;-68
2023/06/09 05:59:22;;;;;;;1.80;1.58;;;19.70;61.90;;;;;;5070728;28;20051;-68
2023/06/09 06:01:49;;;;;;;1.58;1.13;;;19.80;61.90;;;;;;5067087;28;20107;-68
2023/06/09 06:04:15;;;;;;;2.83;1.05;;;19.80;61.80;;;;;;5052571;28;20064;-68
2023/06/09 06:06:40;;;;;;;2.80;1.73;;;19.80;61.70;;;;;;5062759;28;20486;-68
2023/06/09 06:09:06;;;;;;;1.77;1.25;;;20.00;61.70;;;;;;5059214;28;20364;-68
2023/06/09 06:11:32;;;;;;;2.08;0.95;;;20.00;61.50;;;;;;5058952;28;20025;-67
2023/06/09 06:13:58;;;;;;;2.25;1.30;;;20.10;61.60;;;;;;5055703;28;20533;-68
2023/06/09 06:16:23;;;;;;;3.65;1.77;;;20.20;61.60;;;;;;5069011;28;20129;-67
2023/06/09 06:18:49;;;;;;;4.60;1.88;;;20.20;61.30;;;;;;5062169;28;20020;-67
2023/06/09 06:21:16;;;;;;;3.55;1.13;;;20.30;61.20;;;;;;5067621;28;20097;-68
2023/06/09 06:23:42;;;;;;;2.00;0.93;;;20.40;61.20;;;;;;5068212;28;20405;-69
2023/06/09 06:26:07;;;;;;;3.28;1.23;;;20.40;61.10;;;;;;5031989;28;20032;-68
2023/06/09 06:28:33;;;;;;;2.03;1.52;;;20.50;61.00;;;;;;5044880;28;20372;-68
2023/06/09 06:30:58;;;;;;;1.45;0.90;;;20.50;60.80;;;;;;5037541;28;20599;-68
2023/06/09 06:33:29;;;;;;;2.03;0.90;;;20.60;60.90;;;;;;5056312;28;20033;-68
2023/06/09 06:35:55;;;;;;;2.55;2.10;;;20.60;60.80;;;;;;5064068;28;20394;-68
2023/06/09 06:38:20;;;;;;;2.25;1.00;;;20.70;60.90;;;;;;5054763;28;20025;-68
2023/06/09 06:40:47;;;;;;;2.38;1.10;;;20.80;60.80;;;;;;5067954;28;20020;-68
2023/06/09 06:43:13;;;;;;;3.03;1.42;;;20.80;60.70;;;;;;5044793;28;20384;-68
2023/06/09 06:45:39;;;;;;;5.28;1.25;;;20.90;60.60;;;;;;5058429;28;20041;-68
2023/06/09 06:48:05;;;;;;;3.90;1.45;;;21.00;60.70;;;;;;5059453;28;20029;-68
2023/06/09 06:50:32;;;;;;;3.25;1.70;;;21.10;60.70;;;;;;5066554;28;20029;-68
2023/06/09 06:52:58;;;;;;;2.55;1.33;;;21.10;60.50;;;;;;5069196;28;20025;-68
2023/06/09 06:55:24;;;;;;;2.38;1.00;;;21.20;60.40;;;;;;5047991;28;20127;-68
2023/06/09 06:57:50;;;;;;;3.15;1.88;;;21.30;60.20;;;;;;5044369;28;20049;-67
2023/06/09 07:00:16;;;;;;;1.33;0.98;;;21.40;60.20;;;;;;5041469;28;20037;-68
2023/06/09 07:02:46;;;;;;;1.95;1.45;;;21.50;60.00;;;;;;5070271;28;20021;-68
2023/06/09 07:05:12;;;;;;;1.30;0.90;;;21.60;59.80;;;;;;5067570;28;20101;-68
2023/06/09 07:07:38;;;;;;;1.90;1.27;;;21.70;59.60;;;;;;5049899;28;20037;-68
2023/06/09 07:10:05;;;;;;;2.10;1.15;;;21.80;59.50;;;;;;5069111;28;20016;-68
2023/06/09 07:12:32;;;;;;;1.35;0.90;;;21.90;59.40;;;;;;5068098;28;20021;-68
2023/06/09 07:14:58;;;;;;;1.60;1.13;;;22.00;59.30;;;;;;5058065;28;20020;-68
2023/06/09 07:17:24;;;;;;;3.55;1.65;;;22.00;59.00;;;;;;5068524;28;20538;-68
2023/06/09 07:19:49;;;;;;;1.42;1.33;;;22.10;58.90;;;;;;5066637;28;20021;-68
2023/06/09 07:22:15;;;;;;;2.15;1.30;;;22.20;58.80;;;;;;5049994;28;20067;-69
2023/06/09 07:24:41;;;;;;;1.95;1.70;;;22.30;58.70;;;;;;5051577;28;20472;-68
2023/06/09 07:27:07;;;;;;;4.25;1.50;;;22.40;58.50;;;;;;5045230;28;20044;-68
2023/06/09 07:29:35;;;;;;;4.72;1.55;;;22.40;58.40;;;;;;5066803;28;20085;-68
2023/06/09 07:32:04;;;;;;;1.70;1.38;;;22.50;58.40;;;;;;5047398;28;20137;-68
2023/06/09 07:34:31;;;;;;;2.90;1.50;;;22.60;58.50;;;;;;5066592;28;20777;-69
2023/06/09 07:36:59;;;;;;;3.75;1.25;;;22.70;58.30;;;;;;5065082;28;20067;-68
2023/06/09 07:39:25;;;;;;;1.42;1.10;;;22.80;58.10;;;;;;5066178;28;20037;-69
2023/06/09 07:41:51;;;;;;;2.67;1.88;;;22.90;58.00;;;;;;5049829;28;20108;-68
2023/06/09 07:44:17;;;;;;;1.33;1.00;;;23.00;57.90;;;;;;5049568;28;20700;-68
2023/06/09 07:46:42;;;;;;;2.05;0.80;;;23.10;57.70;;;;;;5063228;28;20035;-68
2023/06/09 07:49:08;;;;;;;1.35;1.25;;;23.20;57.60;;;;;;5067376;28;20139;-69
2023/06/09 07:51:37;;;;;;;1.67;1.10;;;23.30;57.50;;;;;;5064353;28;20167;-69
2023/06/09 07:54:05;;;;;;;1.42;1.23;;;23.40;57.30;;;;;;5063607;28;20043;-68
2023/06/09 07:56:32;;;;;;;3.22;1.30;;;23.50;57.10;;;;;;5066175;28;20055;-68
2023/06/09 07:58:58;;;;;;;4.07;1.20;;;23.60;57.00;;;;;;5060531;28;20025;-70
2023/06/09 08:01:27;;;;;;;1.33;1.13;;;23.80;56.80;;;;;;5031041;28;20511;-67
2023/06/09 08:03:53;;;;;;;1.13;1.02;;;23.90;56.90;;;;;;5059768;28;20048;-67
2023/06/09 08:06:19;;;;;;;1.58;1.27;;;24.00;56.50;;;;;;5047310;28;20051;-66
2023/06/09 08:08:44;;;;;;;1.77;1.10;;;24.10;56.40;;;;;;5064708;28;20033;-66
2023/06/09 08:11:11;;;;;;;2.58;1.50;;;24.20;56.30;;;;;;5069056;28;20056;-66
2023/06/09 08:13:36;;;;;;;2.17;1.30;;;24.30;56.10;;;;;;5068681;28;20032;-66
2023/06/09 08:16:03;;;;;;;1.20;1.10;;;24.30;56.10;;;;;;5067049;28;20180;-63
2023/06/09 08:18:28;;;;;;;3.05;1.25;;;24.50;56.10;;;;;;5066849;28;20017;-63
2023/06/09 08:20:54;;;;;;;2.03;1.50;;;24.60;55.90;;;;;;5066507;28;20103;-65
2023/06/09 08:23:23;;;;;;;3.03;2.17;;;24.60;55.50;;;;;;5042165;28;20386;-62
2023/06/09 08:25:50;;;;;;;2.75;1.20;;;24.70;55.60;;;;;;5060254;28;20025;-63
2023/06/09 08:28:15;;;;;;;3.67;1.60;;;24.70;55.60;;;;;;5035585;28;20033;-62
2023/06/09 08:30:41;;;;;;;1.42;1.17;;;24.80;55.50;;;;;;5051614;28;20048;-63
2023/06/09 08:33:07;;;;;;;1.50;1.23;;;24.90;55.30;;;;;;5035516;28;20035;-64
2023/06/09 08:35:33;;;;;;;2.75;1.50;;;25.00;55.10;;;;;;5057181;28;20036;-64
2023/06/09 08:37:59;;;;;;;2.25;1.65;;;25.10;55.00;;;;;;5065577;28;20365;-65
2023/06/09 08:40:25;;;;;;;1.42;1.27;;;25.10;54.80;;;;;;5065124;28;20104;-64
2023/06/09 08:42:55;;;;;;;1.83;1.40;;;25.20;54.80;;;;;;5060388;28;20460;-64
2023/06/09 08:45:22;;;;;;;2.25;1.73;;;25.30;54.70;;;;;;5060926;28;20028;-64
2023/06/09 08:47:49;;;;;;;1.88;1.20;;;25.40;54.60;;;;;;5038478;28;20108;-63
2023/06/09 08:50:18;;;;;;;1.83;1.30;;;25.60;54.50;;;;;;5046173;28;20415;-64
2023/06/09 08:52:45;;;;;;;2.47;1.20;;;25.60;54.30;;;;;;5062354;28;20025;-64
2023/06/09 08:55:13;;;;;;;2.97;1.33;;;25.70;54.10;;;;;;5065019;28;20067;-64
2023/06/09 08:57:40;;;;;;;1.52;1.20;;;25.80;54.10;;;;;;5065880;28;20045;-64
2023/06/09 09:00:09;;;;;;;1.73;1.50;;;25.90;53.90;;;;;;5071695;28;20024;-63
2023/06/09 09:02:35;;;;;;;2.25;1.60;;;26.00;53.90;;;;;;5068610;28;20353;-64
2023/06/09 09:05:01;;;;;;;2.75;1.55;;;26.00;53.70;;;;;;5069295;28;20059;-64
2023/06/09 09:07:28;;;;;;;2.85;1.80;;;26.10;53.60;;;;;;5050416;28;20055;-64
2023/06/09 09:09:54;;;;;;;2.03;1.52;;;26.20;53.50;;;;;;5069688;28;20028;-64
2023/06/09 09:12:20;;;;;;;3.33;1.60;;;26.20;53.40;;;;;;5050929;28;20112;-64
2023/06/09 09:14:46;;;;;;;1.80;1.40;;;26.30;53.20;;;;;;5067724;28;20028;-64
2023/06/09 09:17:14;;;;;;;2.90;1.50;;;26.40;53.10;;;;;;5069322;28;20060;-64
2023/06/09 09:19:45;;;;;;;1.73;1.27;;;26.40;53.00;;;;;;5065368;28;20020;-64
2023/06/09 09:22:11;;;;;;;4.40;1.25;;;26.50;53.00;;;;;;5066028;28;20024;-64
2023/06/09 09:24:41;;;;;;;2.28;1.77;;;26.50;52.80;;;;;;5065118;28;20039;-64
2023/06/09 09:27:27;;;;;;;3.72;1.77;;;26.60;52.80;;;;;;5065049;28;20727;-64
2023/06/09 09:29:53;;;;;;;4.50;1.20;;;26.70;52.70;;;;;;5050251;28;20488;-64
2023/06/09 09:32:25;;;;;;;3.10;1.65;;;26.80;52.50;;;;;;5066166;28;20047;-63
2023/06/09 09:34:51;;;;;;;2.63;1.40;;;26.90;52.30;;;;;;5062167;28;20116;-63
2023/06/09 09:37:17;;;;;;;2.80;1.90;;;27.00;52.30;;;;;;5066292;28;20039;-65
2023/06/09 09:39:50;;;;;;;2.47;1.42;;;27.10;52.10;;;;;;5065200;28;20031;-65
2023/06/09 09:42:17;;;;;;;3.60;1.35;;;27.20;52.00;;;;;;5068914;28;20086;-64
2023/06/09 09:44:46;;;;;;;1.38;1.17;;;27.30;51.90;;;;;;5050718;28;20025;-65
2023/06/09 09:47:14;;;;;;;2.08;1.20;;;27.40;51.80;;;;;;5066495;28;20416;-65
2023/06/09 09:49:50;;;;;;;4.90;1.92;;;27.50;51.60;;;;;;5068389;28;20033;-65
2023/06/09 09:52:26;;;;;;;3.42;1.60;;;27.60;51.40;;;;;;5066321;28;20040;-65
2023/06/09 09:54:53;;;;;;;1.35;1.25;;;27.70;51.30;;;;;;5069765;28;20060;-65
2023/06/09 09:57:19;;;;;;;1.92;1.38;;;27.80;51.20;;;;;;5067338;28;20068;-65
2023/06/09 09:59:47;;;;;;;1.05;1.02;;;27.90;51.00;;;;;;5052841;28;20025;-65
2023/06/09 10:02:23;;;;;;;1.77;1.50;;;28.00;50.70;;;;;;5065342;28;20041;-65
2023/06/09 10:04:50;;;;;;;1.50;1.40;;;28.20;50.50;;;;;;5069414;28;20031;-65
2023/06/09 10:07:21;;;;;;;1.50;1.40;;;28.30;50.20;;;;;;5070117;28;20107;-64
2023/06/09 10:09:51;;;;;;;1.50;1.40;;;28.30;49.90;;;;;;5069323;28;20813;-65
2023/06/09 10:12:18;;;;;;;1.55;1.35;;;28.40;49.90;;;;;;5060458;28;20031;-65
2023/06/09 10:14:46;;;;;;;2.65;1.13;;;28.50;49.40;;;;;;5063747;28;20134;-65
2023/06/09 10:17:13;;;;;;;2.05;1.58;;;28.70;49.20;;;;;;5071428;28;20475;-65
2023/06/09 10:19:41;;;;;;;2.15;1.70;;;28.70;48.90;;;;;;5051010;28;20042;-66
2023/06/09 10:22:09;;;;;;;1.33;0.90;;;28.90;48.90;;;;;;5064628;28;20031;-65
2023/06/09 10:24:35;;;;;;;2.45;1.38;;;29.00;48.70;;;;;;5065975;28;20035;-64
2023/06/09 10:27:03;;;;;;;1.42;1.17;;;29.30;48.50;;;;;;5070366;28;20086;-65
2023/06/09 10:29:29;;;;;;;1.20;1.10;;;29.40;48.10;;;;;;5061804;28;20020;-64
2023/06/09 10:31:57;;;;;;;1.35;1.08;;;29.50;47.90;;;;;;5068439;28;20028;-65
2023/06/09 10:34:24;;;;;;;1.80;1.70;;;29.60;47.70;;;;;;5069529;28;20039;-65
2023/06/09 10:36:53;;;;;;;2.08;1.27;;;29.70;47.00;;;;;;5045604;28;20074;-65
2023/06/09 10:39:23;;;;;;;1.77;1.23;;;29.80;46.70;;;;;;5068156;28;20016;-64
2023/06/09 10:42:25;;;;;;;1.95;1.20;;;29.90;46.60;;;;;;5062490;28;20032;-65
2023/06/09 10:45:12;;;;;;;1.52;1.42;;;30.00;46.30;;;;;;5058966;28;20012;-65
2023/06/09 10:47:45;;;;;;;1.40;1.30;;;30.20;45.70;;;;;;5065539;28;20029;-65
2023/06/09 10:50:33;;;;;;;1.42;1.33;;;30.40;45.60;;;;;;5052132;28;20472;-65
2023/06/09 10:53:02;;;;;;;1.13;0.93;;;30.50;45.50;;;;;;5064223;28;20048;-65
2023/06/09 10:55:30;;;;;;;2.47;1.77;;;30.60;45.20;;;;;;5060848;28;20033;-65
2023/06/09 10:57:57;;;;;;;1.30;1.20;;;30.80;44.50;;;;;;5065830;28;20063;-65
2023/06/09 11:00:25;;;;;;;1.40;1.30;;;30.80;44.40;;;;;;5069144;28;20107;-65
2023/06/09 11:03:08;;;;;;;1.33;0.95;;;30.90;44.30;;;;;;5067754;28;20387;-65
2023/06/09 11:05:42;;;;;;;1.50;1.40;;;31.00;44.30;;;;;;5062819;28;20037;-65
2023/06/09 11:08:08;;;;;;;1.52;1.20;;;31.10;43.90;;;;;;5062203;28;20433;-65
2023/06/09 11:10:36;;;;;;;2.63;1.80;;;31.10;43.90;;;;;;5047447;28;20032;-66
2023/06/09 11:13:22;;;;;;;1.58;1.48;;;31.10;43.40;;;;;;5058459;28;20037;-66
2023/06/09 11:16:03;;;;;;;1.85;1.65;;;31.30;43.50;;;;;;5056275;28;20434;-65
2023/06/09 11:18:29;;;;;;;2.28;1.48;;;31.40;43.20;;;;;;5067210;28;20484;-66
2023/06/09 11:21:16;;;;;;;1.50;1.40;;;31.50;42.90;;;;;;5062474;28;20024;-65
2023/06/09 11:24:01;;;;;;;1.98;1.70;;;31.50;42.80;;;;;;5058711;28;20477;-66
2023/06/09 11:26:28;;;;;;;2.15;1.75;;;31.60;42.70;;;;;;5056487;28;20036;-65
2023/06/09 11:28:54;;;;;;;2.60;1.90;;;31.60;42.40;;;;;;5042678;28;20036;-65
2023/06/09 11:31:20;;;;;;;1.58;1.40;;;31.70;42.50;;;;;;5042934;28;20035;-66
2023/06/09 11:33:55;;;;;;;2.03;1.40;;;31.80;42.50;;;;;;5063258;28;20029;-66
2023/06/09 11:36:25;;;;;;;1.73;1.63;;;32.00;42.40;;;;;;5060548;28;20036;-65
2023/06/09 11:38:51;;;;;;;1.77;1.35;;;32.20;42.00;;;;;;5064615;28;20099;-65
2023/06/09 11:41:22;;;;;;;1.50;1.40;;;32.30;41.80;;;;;;5058094;28;20040;-65
2023/06/09 11:43:53;;;;;;;1.42;1.30;;;32.40;41.50;;;;;;5065065;28;20028;-64
2023/06/09 11:46:19;;;;;;;1.47;1.37;;;32.40;41.80;;;;;;5062412;28;20367;-65
2023/06/09 11:49:06;;;;;;;1.83;1.40;;;32.40;42.30;;;;;;5066553;28;20097;-66
2023/06/09 11:52:06;;;;;;;2.90;1.95;;;32.40;42.30;;;;;;5061976;28;20035;-65
2023/06/09 11:54:45;;;;;;;1.25;1.15;;;32.50;42.00;;;;;;5050704;28;20048;-66
2023/06/09 11:57:14;;;;;;;1.80;1.70;;;32.50;41.90;;;;;;5035395;28;20049;-66
2023/06/09 11:59:39;;;;;;;2.08;1.38;;;32.50;41.60;;;;;;5041686;28;20022;-65
2023/06/09 12:02:05;;;;;;;1.80;1.60;;;32.60;41.70;;;;;;5039726;28;20385;-66
2023/06/09 12:04:31;;;;;;;1.75;1.65;;;32.70;41.50;;;;;;5043105;28;20112;-66
2023/06/09 12:06:56;;;;;;;2.03;1.83;;;32.80;41.30;;;;;;5043243;28;20052;-65
2023/06/09 12:09:24;;;;;;;1.80;1.40;;;32.90;41.00;;;;;;5045447;28;20447;-65
2023/06/09 12:11:53;;;;;;;2.22;1.95;;;33.00;40.70;;;;;;5045100;28;20095;-65
2023/06/09 12:14:21;;;;;;;1.30;1.20;;;33.10;40.00;;;;;;5044901;28;20345;-64
2023/06/09 12:16:47;;;;;;;2.42;1.60;;;33.20;39.90;;;;;;5044584;28;20502;-64
2023/06/09 12:19:13;;;;;;;1.67;1.23;;;33.30;39.90;;;;;;5041772;28;20029;-64
2023/06/09 12:21:38;;;;;;;1.77;1.40;;;33.40;39.80;;;;;;5041923;28;20051;-66
2023/06/09 12:24:05;;;;;;;2.17;1.50;;;33.50;39.40;;;;;;5038359;28;20384;-66
2023/06/09 12:26:40;;;;;;;4.07;1.80;;;33.50;39.10;;;;;;5044700;28;20040;-65
2023/06/09 12:29:06;;;;;;;1.50;1.40;;;33.60;39.20;;;;;;5048010;28;20219;-64
2023/06/09 12:31:32;;;;;;;1.65;1.55;;;33.50;38.80;;;;;;5043524;28;20135;-66
2023/06/09 12:33:58;;;;;;;2.42;1.80;;;33.40;38.70;;;;;;5045441;28;20044;-65
2023/06/09 12:36:25;;;;;;;1.40;1.20;;;33.30;38.90;;;;;;5040308;28;20041;-65
2023/06/09 12:38:51;;;;;;;3.25;1.45;;;33.40;38.90;;;;;;5038629;28;20064;-66
2023/06/09 12:41:17;;;;;;;2.38;1.73;;;33.50;38.70;;;;;;5042869;28;20022;-66
2023/06/09 12:43:50;;;;;;;2.03;1.75;;;33.80;38.70;;;;;;5039536;28;20061;-66
2023/06/09 12:46:25;;;;;;;1.73;1.50;;;33.90;38.20;;;;;;5042407;28;20044;-67
2023/06/09 12:49:01;;;;;;;1.58;1.48;;;33.80;38.00;;;;;;5043271;28;20078;-65
2023/06/09 12:51:27;;;;;;;1.48;1.38;;;33.80;38.20;;;;;;5039974;28;20576;-65
2023/06/09 12:53:54;;;;;;;1.35;1.25;;;33.90;37.90;;;;;;5047122;28;20063;-64